Heat Index [SAI AWOS/ASOS Display]_________FAA Disclaimer: "Not for use in aviation at this time______________" Untitled Document
Potsdam Municipal/ Damon Field (PTD)
300
13:04
17/11/27
07
N/A
N/A
30.01
N/A
474
23(F), -5(C)
21(F), -6(C)
14 F
92%
SCT017 OVC026
10
N/A
N/A
N/A
13:04 Zulu Wind 300 at 07 Knots, Altimeter 30.01
METAR KPTD 271304Z AUTO 30007KT 10SM SCT017 OVC026 M05/M06 A3001 A02
METAR:
FAA Disclaimer--Advisory Use ONLY, not for flight info-- 1/17/2017: Current fuel prices are $4.34 per gallon for 100LL, and $3.55 per gallon for Jet A. AWOS phone 315-265-6106 updated 09/18/2014
INFO:
Wind Direction:
Wind Speed:
Wind Gust:
Wind Variable:
Altimeter:
Dens Alt:
Elev:
Temp:
Dwpt:
Wind Chill
Rel Humidity:
Ceiling:
Visibility:
Prsnt Wea:
PCPN:
Remarks:
NOTICE--Current weather data is more than 15 minutes old. The SAI AWOS/ASOS Display is inoperative at this time.
How to read the WebPage